createdAt,value
2023-12-18T00:00:37.503Z,4.90
2023-12-18T00:03:08.071Z,5.20
2023-12-18T00:05:39.305Z,5.20
2023-12-18T00:08:11.027Z,5.30
2023-12-18T00:10:41.580Z,5.10
2023-12-18T00:13:12.327Z,5.20
2023-12-18T00:15:42.788Z,5.70
2023-12-18T00:18:13.179Z,5.00
2023-12-18T00:20:43.745Z,5.20
2023-12-18T00:23:14.399Z,5.40
2023-12-18T00:25:45.689Z,5.30
2023-12-18T00:28:15.946Z,5.50
2023-12-18T00:30:46.235Z,5.10
2023-12-18T00:33:16.702Z,4.90
2023-12-18T00:35:47.467Z,4.80
2023-12-18T00:38:17.717Z,4.70
2023-12-18T00:40:47.905Z,4.80
2023-12-18T00:43:18.197Z,4.80
2023-12-18T00:45:48.822Z,5.00
2023-12-18T00:48:19.846Z,5.00
2023-12-18T00:50:51.865Z,4.90
2023-12-18T00:53:25.332Z,5.00
2023-12-18T00:55:56.123Z,5.00
2023-12-18T00:58:26.809Z,5.00
2023-12-18T01:00:57.639Z,5.00
2023-12-18T01:03:28.125Z,5.20
2023-12-18T01:05:58.828Z,5.10
2023-12-18T01:08:29.325Z,5.00
2023-12-18T01:11:00.983Z,4.80
2023-12-18T01:13:31.697Z,5.00
2023-12-18T01:16:02.714Z,5.20
2023-12-18T01:18:33.589Z,5.10
2023-12-18T01:21:06.621Z,5.10
2023-12-18T01:23:36.939Z,5.80
2023-12-18T01:26:07.136Z,5.10
2023-12-18T01:28:37.715Z,5.20
2023-12-18T01:31:08.121Z,5.00
2023-12-18T01:33:38.838Z,5.10
2023-12-18T01:36:17.279Z,5.10
2023-12-18T01:38:48.587Z,5.00
2023-12-18T01:41:19.157Z,4.90
2023-12-18T01:43:51.244Z,5.00
2023-12-18T01:46:26.599Z,5.10
2023-12-18T01:48:58.949Z,5.20
2023-12-18T01:51:29.823Z,5.30
2023-12-18T01:54:02.853Z,5.80
2023-12-18T01:56:39.947Z,5.20
2023-12-18T01:59:12.256Z,5.20
2023-12-18T02:01:44.408Z,5.40
2023-12-18T02:04:14.861Z,5.30
2023-12-18T02:06:49.469Z,5.40
2023-12-18T02:09:19.866Z,5.30
2023-12-18T02:11:50.493Z,5.40
2023-12-18T02:14:21.032Z,5.40
2023-12-18T02:16:53.577Z,5.50
2023-12-18T02:19:28.190Z,5.20
2023-12-18T02:21:59.268Z,5.20
2023-12-18T02:24:29.717Z,5.50
2023-12-18T02:27:01.740Z,5.50
2023-12-18T02:29:32.319Z,5.20
2023-12-18T02:32:03.196Z,4.90
2023-12-18T02:34:34.932Z,5.10
2023-12-18T02:37:06.194Z,5.20
2023-12-18T02:39:36.861Z,5.30
2023-12-18T02:42:07.614Z,5.20
2023-12-18T02:44:38.208Z,5.40
2023-12-18T02:47:08.442Z,5.30
2023-12-18T02:49:39.293Z,5.40
2023-12-18T02:52:09.501Z,5.40
2023-12-18T02:54:40.239Z,5.60
2023-12-18T02:57:10.886Z,5.70
2023-12-18T02:59:43.353Z,5.40
2023-12-18T03:02:14.043Z,5.30
2023-12-18T03:04:44.768Z,5.20
2023-12-18T03:07:16.573Z,5.20
2023-12-18T03:09:46.968Z,5.20
2023-12-18T03:12:22.139Z,5.20
2023-12-18T03:14:53.275Z,5.20
2023-12-18T03:17:23.975Z,5.00
2023-12-18T03:19:54.498Z,5.10
2023-12-18T03:22:24.704Z,5.10
2023-12-18T03:24:54.964Z,5.20
2023-12-18T03:27:25.219Z,5.20
2023-12-18T03:29:55.863Z,5.20
2023-12-18T03:32:26.696Z,5.00
2023-12-18T03:34:57.067Z,5.30
2023-12-18T03:37:27.311Z,5.40
2023-12-18T03:39:57.849Z,5.40
2023-12-18T03:42:28.303Z,5.40
2023-12-18T03:44:58.506Z,5.40
2023-12-18T03:47:28.821Z,5.30
2023-12-18T03:50:00.548Z,5.20
2023-12-18T03:52:32.988Z,5.30
2023-12-18T03:55:05.315Z,5.10
2023-12-18T03:57:51.468Z,5.20
2023-12-18T04:00:21.956Z,5.40
2023-12-18T04:02:52.138Z,5.30
2023-12-18T04:05:22.435Z,5.50
2023-12-18T04:07:52.961Z,5.10
2023-12-18T04:10:23.185Z,5.30
2023-12-18T04:12:54.055Z,5.40
2023-12-18T04:15:24.506Z,5.30
2023-12-18T04:17:57.933Z,5.30
2023-12-18T04:20:28.435Z,5.30
2023-12-18T04:22:59.084Z,4.90
2023-12-18T04:25:30.214Z,5.20
2023-12-18T04:28:01.942Z,5.30
2023-12-18T04:30:33.622Z,5.20
2023-12-18T04:33:05.104Z,5.40
2023-12-18T04:35:35.577Z,5.40
2023-12-18T04:38:06.274Z,5.40
2023-12-18T04:40:40.154Z,5.50
2023-12-18T04:43:10.486Z,5.60
2023-12-18T04:45:41.331Z,5.50
2023-12-18T04:48:11.813Z,5.30
2023-12-18T04:50:45.934Z,5.20
2023-12-18T04:53:16.662Z,6.90
2023-12-18T04:55:47.451Z,5.20
2023-12-18T04:58:18.071Z,5.10
2023-12-18T05:00:48.960Z,5.20
2023-12-18T05:03:19.680Z,5.30
2023-12-18T05:05:50.012Z,5.10
2023-12-18T05:08:20.635Z,5.10
2023-12-18T05:10:51.004Z,5.10
2023-12-18T05:13:26.147Z,5.10
2023-12-18T05:15:56.585Z,5.30
2023-12-18T05:21:14.856Z,5.10
2023-12-18T05:23:45.221Z,5.20
2023-12-18T05:26:16.792Z,5.50
2023-12-18T05:28:47.151Z,5.20
2023-12-18T05:31:19.504Z,5.20
2023-12-18T05:33:50.327Z,5.10
2023-12-18T05:36:21.343Z,5.30
2023-12-18T05:38:54.147Z,5.20
2023-12-18T05:41:24.503Z,5.20
2023-12-18T05:43:54.994Z,5.10
2023-12-18T05:46:25.224Z,5.20
2023-12-18T05:48:56.398Z,5.30
2023-12-18T05:51:26.906Z,5.30
2023-12-18T05:54:00.964Z,5.20
2023-12-18T05:56:32.042Z,5.30
2023-12-18T05:59:08.071Z,5.40
2023-12-18T06:01:38.670Z,5.40
2023-12-18T06:04:12.257Z,5.30
2023-12-18T06:06:42.632Z,5.20
2023-12-18T06:09:13.309Z,5.30
2023-12-18T06:11:43.946Z,5.40
2023-12-18T06:14:15.583Z,5.40
2023-12-18T06:16:46.167Z,5.40
2023-12-18T06:19:16.539Z,5.30
2023-12-18T06:21:50.343Z,5.30
2023-12-18T06:24:21.034Z,5.30
2023-12-18T06:26:51.789Z,5.40
2023-12-18T06:29:27.322Z,5.70
2023-12-18T06:31:58.351Z,5.40
2023-12-18T06:34:28.826Z,5.40
2023-12-18T06:36:59.176Z,5.30
2023-12-18T06:39:29.520Z,5.20
2023-12-18T06:42:03.713Z,5.30
2023-12-18T06:44:35.822Z,5.10
2023-12-18T06:47:06.267Z,5.10
2023-12-18T06:49:37.020Z,5.20
2023-12-18T06:52:11.446Z,5.30
2023-12-18T06:54:42.685Z,5.50
2023-12-18T06:57:18.290Z,5.50
2023-12-18T06:59:49.491Z,5.40
2023-12-18T07:02:19.799Z,5.60
2023-12-18T07:04:51.375Z,5.50
2023-12-18T07:07:23.020Z,5.30
2023-12-18T07:09:59.041Z,5.30
2023-12-18T07:12:29.971Z,5.50
2023-12-18T07:15:00.402Z,5.60
2023-12-18T07:17:31.481Z,5.60
2023-12-18T07:20:03.143Z,5.60
2023-12-18T07:22:35.441Z,5.50
2023-12-18T07:25:05.799Z,5.40
2023-12-18T07:27:37.059Z,5.20
2023-12-18T07:30:08.083Z,5.30
2023-12-18T07:32:42.254Z,5.30
2023-12-18T07:35:13.210Z,5.30
2023-12-18T07:37:43.738Z,5.30
2023-12-18T07:40:15.432Z,5.30
2023-12-18T07:42:46.133Z,5.50
2023-12-18T07:45:26.796Z,5.40
2023-12-18T07:47:57.264Z,5.30
2023-12-18T07:50:30.357Z,5.30
2023-12-18T07:53:00.743Z,5.40
2023-12-18T07:55:32.394Z,5.70
2023-12-18T07:58:02.634Z,5.70
2023-12-18T08:00:34.309Z,5.60
2023-12-18T08:03:04.726Z,5.70
2023-12-18T08:05:35.053Z,5.70
2023-12-18T08:08:05.679Z,5.80
2023-12-18T08:10:35.976Z,5.90
2023-12-18T08:13:06.657Z,5.50
2023-12-18T08:15:37.353Z,5.60
2023-12-18T08:18:08.038Z,6.30
2023-12-18T08:20:38.626Z,5.60
2023-12-18T08:23:10.171Z,5.60
2023-12-18T08:25:40.478Z,5.80
2023-12-18T08:28:11.125Z,5.90
2023-12-18T08:30:41.544Z,5.70
2023-12-18T08:33:12.282Z,5.70
2023-12-18T08:35:42.775Z,5.80
2023-12-18T08:38:14.304Z,5.70
2023-12-18T08:40:46.181Z,5.70
2023-12-18T08:45:59.461Z,5.70
2023-12-18T08:48:29.808Z,5.70
2023-12-18T08:51:00.177Z,5.60
2023-12-18T08:53:30.809Z,4.90
2023-12-18T08:56:01.145Z,5.60
2023-12-18T08:58:31.682Z,5.50
2023-12-18T09:01:02.142Z,5.50
2023-12-18T09:03:40.593Z,5.40
2023-12-18T09:06:11.010Z,5.40
2023-12-18T09:08:44.684Z,5.30
2023-12-18T09:11:15.004Z,5.40
2023-12-18T09:13:47.369Z,5.60
2023-12-18T09:16:19.486Z,5.40
2023-12-18T09:18:49.796Z,5.50
2023-12-18T09:21:20.592Z,5.40
2023-12-18T09:23:52.429Z,5.30
2023-12-18T09:26:24.106Z,5.50
2023-12-18T09:28:54.498Z,5.50
2023-12-18T09:31:24.884Z,5.50
2023-12-18T09:33:55.654Z,5.40
2023-12-18T09:36:26.427Z,5.30
2023-12-18T09:38:57.131Z,5.20
2023-12-18T09:41:28.083Z,5.30
2023-12-18T09:43:59.903Z,5.30
2023-12-18T09:46:30.290Z,5.40
2023-12-18T09:49:00.693Z,5.50
2023-12-18T09:51:31.536Z,5.50
2023-12-18T09:56:46.067Z,5.70
2023-12-18T09:59:16.331Z,5.60
2023-12-18T10:01:48.744Z,5.60
2023-12-18T10:04:20.134Z,5.60
2023-12-18T10:06:54.826Z,5.60
2023-12-18T10:09:26.648Z,5.60
2023-12-18T10:11:57.311Z,5.60
2023-12-18T10:14:27.601Z,5.70
2023-12-18T10:16:58.205Z,5.60
2023-12-18T10:19:30.045Z,5.40
2023-12-18T10:22:01.001Z,5.60
2023-12-18T10:24:31.624Z,5.60
2023-12-18T10:27:02.219Z,5.60
2023-12-18T10:29:33.065Z,5.40
2023-12-18T10:32:08.380Z,5.40
2023-12-18T10:34:43.950Z,5.50
2023-12-18T10:37:15.049Z,5.50
2023-12-18T10:39:46.301Z,5.50
2023-12-18T10:42:20.902Z,5.60
2023-12-18T10:44:52.719Z,5.40
2023-12-18T10:47:24.214Z,5.50
2023-12-18T10:49:56.458Z,5.40
2023-12-18T10:52:43.505Z,5.30
2023-12-18T10:55:15.438Z,5.20
2023-12-18T10:57:50.083Z,5.30
2023-12-18T11:00:21.419Z,5.40
2023-12-18T11:02:52.549Z,5.50
2023-12-18T11:05:24.627Z,5.50
2023-12-18T11:07:55.332Z,5.60
2023-12-18T11:10:26.060Z,5.40
2023-12-18T11:13:11.038Z,5.40
2023-12-18T11:16:00.246Z,5.60
2023-12-18T11:18:46.810Z,5.70
2023-12-18T11:21:17.680Z,5.80
2023-12-18T11:24:01.417Z,5.50
2023-12-18T11:26:38.040Z,5.60
2023-12-18T11:29:27.129Z,5.70
2023-12-18T11:32:00.338Z,5.70
2023-12-18T11:34:30.849Z,5.60
2023-12-18T11:37:04.277Z,5.50
2023-12-18T11:39:44.099Z,5.60
2023-12-18T11:42:14.431Z,5.70
2023-12-18T11:44:44.858Z,5.70
2023-12-18T11:47:15.257Z,5.70
2023-12-18T11:49:45.841Z,5.80
2023-12-18T11:52:26.155Z,5.60
2023-12-18T11:57:47.995Z,5.60
2023-12-18T12:00:19.217Z,5.70
2023-12-18T12:02:49.619Z,5.60
2023-12-18T12:05:20.233Z,5.70
2023-12-18T12:07:53.982Z,5.70
2023-12-18T12:10:24.248Z,5.40
2023-12-18T12:12:58.207Z,5.30
2023-12-18T12:15:29.984Z,5.30
2023-12-18T12:18:07.484Z,5.30
2023-12-18T12:20:37.767Z,5.20
2023-12-18T12:23:08.359Z,5.50
2023-12-18T12:25:38.819Z,5.40
2023-12-18T12:28:09.099Z,5.20
2023-12-18T12:30:39.651Z,5.40
2023-12-18T12:33:13.335Z,5.20
2023-12-18T12:35:44.795Z,5.10
2023-12-18T12:38:17.164Z,5.10
2023-12-18T12:40:48.778Z,5.10
2023-12-18T12:43:19.507Z,5.20
2023-12-18T12:45:50.174Z,5.20
2023-12-18T12:48:20.657Z,5.40
2023-12-18T12:50:50.920Z,5.50
2023-12-18T12:53:21.420Z,5.30
2023-12-18T12:55:52.304Z,5.30
2023-12-18T12:58:25.071Z,5.10
2023-12-18T13:00:55.571Z,5.20
2023-12-18T13:03:26.307Z,5.10
2023-12-18T13:05:56.756Z,5.20
2023-12-18T13:08:27.111Z,5.30
2023-12-18T13:11:03.802Z,5.20
2023-12-18T13:16:04.785Z,5.30
2023-12-18T13:18:35.711Z,5.50
2023-12-18T13:23:50.613Z,5.20
2023-12-18T13:26:22.332Z,5.40
2023-12-18T13:28:52.990Z,5.50
2023-12-18T13:31:23.460Z,5.40
2023-12-18T13:33:56.698Z,5.50
2023-12-18T13:36:40.717Z,5.60
2023-12-18T13:39:13.037Z,5.70
2023-12-18T13:42:01.104Z,5.70
2023-12-18T13:44:32.248Z,5.80
2023-12-18T13:47:02.725Z,5.70
2023-12-18T13:49:33.360Z,5.60
2023-12-18T13:52:03.759Z,5.40
2023-12-18T13:54:43.253Z,5.50
2023-12-18T13:57:14.020Z,5.50
2023-12-18T14:02:14.822Z,5.50
2023-12-18T14:04:45.473Z,5.50
2023-12-18T14:07:15.941Z,5.30
2023-12-18T14:09:58.035Z,5.50
2023-12-18T14:12:28.501Z,5.60
2023-12-18T14:15:00.219Z,5.70
2023-12-18T14:17:36.875Z,5.80
2023-12-18T14:20:07.693Z,5.60
2023-12-18T14:22:38.175Z,5.70
2023-12-18T14:25:09.249Z,5.70
2023-12-18T14:27:39.699Z,5.70
2023-12-18T14:30:10.526Z,5.60
2023-12-18T14:32:41.014Z,5.40
2023-12-18T14:35:11.997Z,5.40
2023-12-18T14:37:44.449Z,5.50
2023-12-18T14:40:15.930Z,5.40
2023-12-18T14:42:46.701Z,5.50
2023-12-18T14:45:18.671Z,5.60
2023-12-18T14:47:49.268Z,5.50
2023-12-18T14:50:20.359Z,5.70
2023-12-18T14:52:51.397Z,5.60
2023-12-18T14:55:21.796Z,5.20
2023-12-18T14:57:52.912Z,5.20
2023-12-18T15:00:45.533Z,5.40
2023-12-18T15:03:19.421Z,5.60
2023-12-18T15:05:50.418Z,5.80
2023-12-18T15:08:21.085Z,4.80
2023-12-18T15:10:51.341Z,5.80
2023-12-18T15:13:24.007Z,5.70
2023-12-18T15:15:55.235Z,4.40
2023-12-18T15:18:28.870Z,5.80
2023-12-18T15:20:59.285Z,5.70
2023-12-18T15:23:29.816Z,5.60
2023-12-18T15:26:00.204Z,5.50
2023-12-18T15:28:34.045Z,5.40
2023-12-18T15:31:05.791Z,5.40
2023-12-18T15:33:36.297Z,5.50
2023-12-18T15:36:13.195Z,5.70
2023-12-18T15:38:53.718Z,5.60
2023-12-18T15:41:24.756Z,5.30
2023-12-18T15:43:55.099Z,5.30
2023-12-18T15:46:25.499Z,5.30
2023-12-18T15:48:55.967Z,5.10
2023-12-18T15:51:26.387Z,5.40
2023-12-18T15:53:57.220Z,5.30
2023-12-18T15:56:31.684Z,5.20
2023-12-18T15:59:21.812Z,5.10
2023-12-18T16:01:52.451Z,4.90
2023-12-18T16:04:22.975Z,4.90
2023-12-18T16:06:53.728Z,5.20
2023-12-18T16:09:45.842Z,5.10
2023-12-18T16:12:19.159Z,5.10
2023-12-18T16:14:54.057Z,5.30
2023-12-18T16:17:26.931Z,5.00
2023-12-18T16:19:58.447Z,5.00
2023-12-18T16:22:31.895Z,4.90
2023-12-18T16:25:02.540Z,5.00
2023-12-18T16:27:42.189Z,5.10
2023-12-18T16:30:13.287Z,5.20
2023-12-18T16:32:48.424Z,5.40
2023-12-18T16:35:20.556Z,5.10
2023-12-18T16:37:50.906Z,5.00
2023-12-18T16:40:21.539Z,5.10
2023-12-18T16:42:52.013Z,4.90
2023-12-18T16:45:22.353Z,4.80
2023-12-18T16:47:53.143Z,4.80
2023-12-18T16:50:23.534Z,5.00
2023-12-18T16:52:54.089Z,5.20
2023-12-18T16:55:24.577Z,5.20
2023-12-18T16:57:55.749Z,5.30
2023-12-18T17:00:34.633Z,4.90
2023-12-18T17:03:04.994Z,4.90
2023-12-18T17:05:37.275Z,4.90
2023-12-18T17:08:08.087Z,5.00
2023-12-18T17:10:38.750Z,4.90
2023-12-18T17:13:09.179Z,4.80
2023-12-18T17:15:45.297Z,4.80
2023-12-18T17:18:16.680Z,4.70
2023-12-18T17:20:47.318Z,4.70
2023-12-18T17:23:24.857Z,4.80
2023-12-18T17:25:59.516Z,4.70
2023-12-18T17:28:29.847Z,4.90
2023-12-18T17:31:00.533Z,4.70
2023-12-18T17:33:31.335Z,4.60
2023-12-18T17:36:01.982Z,4.60
2023-12-18T17:38:32.637Z,4.50
2023-12-18T17:41:04.318Z,4.50
2023-12-18T17:43:37.280Z,4.70
2023-12-18T17:46:07.532Z,4.80
2023-12-18T17:48:41.384Z,5.40
2023-12-18T17:51:13.312Z,4.70
2023-12-18T17:53:44.023Z,4.60
2023-12-18T17:56:14.583Z,4.60
2023-12-18T17:58:44.973Z,4.60
2023-12-18T18:01:28.040Z,4.40
2023-12-18T18:04:00.039Z,4.40
2023-12-18T18:06:33.756Z,4.50
2023-12-18T18:09:04.093Z,4.70
2023-12-18T18:11:34.755Z,4.70
2023-12-18T18:14:05.009Z,4.90
2023-12-18T18:16:37.037Z,6.20
2023-12-18T18:19:10.602Z,4.80
2023-12-18T18:21:41.053Z,4.90
2023-12-18T18:24:11.569Z,4.70
2023-12-18T18:26:42.452Z,4.40
2023-12-18T18:29:30.025Z,4.50
2023-12-18T18:32:02.982Z,4.80
2023-12-18T18:34:34.119Z,4.80
2023-12-18T18:37:04.882Z,4.80
2023-12-18T18:39:35.491Z,4.90
2023-12-18T18:42:06.178Z,5.10
2023-12-18T18:44:36.607Z,5.20
2023-12-18T18:47:08.346Z,5.20
2023-12-18T18:49:38.768Z,5.10
2023-12-18T18:52:09.389Z,5.00
2023-12-18T18:54:39.887Z,4.90
2023-12-18T18:57:14.657Z,5.00
2023-12-18T18:59:45.097Z,4.80
2023-12-18T19:02:18.249Z,4.90
2023-12-18T19:04:55.003Z,4.90
2023-12-18T19:07:25.406Z,4.90
2023-12-18T19:09:55.766Z,4.80
2023-12-18T19:12:26.430Z,4.70
2023-12-18T19:14:56.798Z,4.70
2023-12-18T19:17:27.047Z,4.60
2023-12-18T19:19:57.530Z,4.60
2023-12-18T19:22:29.097Z,4.70
2023-12-18T19:24:59.789Z,4.80
2023-12-18T19:27:30.127Z,4.90
2023-12-18T19:30:00.502Z,5.00
2023-12-18T19:32:31.406Z,4.90
2023-12-18T19:35:01.790Z,4.80
2023-12-18T19:37:32.630Z,4.70
2023-12-18T19:40:03.436Z,4.50
2023-12-18T19:42:33.968Z,4.50
2023-12-18T19:45:04.574Z,4.70
2023-12-18T19:47:34.866Z,4.60
2023-12-18T19:50:05.288Z,4.50
2023-12-18T19:52:35.547Z,4.50
2023-12-18T19:55:06.602Z,4.50
2023-12-18T19:57:41.323Z,4.70
2023-12-18T20:00:18.131Z,4.90
2023-12-18T20:02:48.851Z,4.60
2023-12-18T20:05:19.324Z,4.70
2023-12-18T20:07:50.843Z,4.90
2023-12-18T20:10:23.357Z,5.00
2023-12-18T20:12:54.878Z,4.90
2023-12-18T20:15:25.176Z,4.80
2023-12-18T20:17:55.945Z,2.50
2023-12-18T20:20:27.053Z,4.70
2023-12-18T20:22:58.210Z,4.80
2023-12-18T20:25:28.447Z,4.80
2023-12-18T20:27:59.100Z,5.00
2023-12-18T20:30:29.858Z,4.70
2023-12-18T20:33:03.213Z,4.80
2023-12-18T20:35:33.766Z,4.60
2023-12-18T20:38:04.083Z,4.60
2023-12-18T20:40:36.485Z,4.60
2023-12-18T20:43:07.151Z,4.90
2023-12-18T20:45:40.606Z,4.60
2023-12-18T20:48:11.181Z,4.40
2023-12-18T20:50:41.660Z,4.40
2023-12-18T20:53:12.023Z,4.50
2023-12-18T20:55:42.679Z,4.60
2023-12-18T20:58:13.398Z,5.10
2023-12-18T21:00:43.871Z,4.80
2023-12-18T21:03:14.277Z,4.80
2023-12-18T21:05:44.934Z,4.60
2023-12-18T21:08:15.225Z,4.50
2023-12-18T21:10:45.366Z,4.50
2023-12-18T21:13:18.447Z,4.40
2023-12-18T21:15:49.317Z,4.60
2023-12-18T21:18:19.853Z,4.50
2023-12-18T21:20:50.734Z,4.40
2023-12-18T21:23:22.632Z,4.50
2023-12-18T21:25:53.400Z,4.70
2023-12-18T21:28:23.722Z,4.50
2023-12-18T21:30:55.385Z,4.50
2023-12-18T21:33:26.142Z,4.50
2023-12-18T21:35:57.865Z,4.40
2023-12-18T21:38:28.131Z,4.60
2023-12-18T21:40:58.725Z,4.80
2023-12-18T21:43:30.420Z,5.00
2023-12-18T21:46:01.585Z,5.00
2023-12-18T21:48:35.319Z,4.60
2023-12-18T21:51:06.032Z,4.50
2023-12-18T21:53:37.945Z,4.50
2023-12-18T21:56:10.840Z,4.50
2023-12-18T21:58:42.057Z,4.40
2023-12-18T22:01:12.457Z,4.30
2023-12-18T22:03:43.704Z,4.40
2023-12-18T22:06:14.111Z,4.50
2023-12-18T22:08:44.599Z,4.50
2023-12-18T22:11:15.204Z,4.50
2023-12-18T22:13:45.755Z,4.70
2023-12-18T22:16:16.845Z,4.80
2023-12-18T22:18:50.633Z,4.60
2023-12-18T22:21:21.530Z,4.70
2023-12-18T22:23:52.028Z,4.90
2023-12-18T22:26:22.700Z,4.80
2023-12-18T22:28:53.297Z,5.20
2023-12-18T22:31:23.973Z,4.90
2023-12-18T22:33:54.716Z,4.60
2023-12-18T22:36:25.353Z,4.50
2023-12-18T22:38:59.397Z,4.50
2023-12-18T22:41:33.808Z,4.30
2023-12-18T22:44:04.193Z,4.50
2023-12-18T22:46:34.390Z,4.60
2023-12-18T22:49:05.081Z,4.60
2023-12-18T22:51:35.566Z,4.70
2023-12-18T22:54:06.112Z,4.90
2023-12-18T22:56:36.932Z,5.00
2023-12-18T22:59:07.428Z,4.90
2023-12-18T23:01:37.819Z,4.80
2023-12-18T23:04:08.360Z,4.70
2023-12-18T23:06:39.298Z,4.60
2023-12-18T23:09:09.657Z,4.90
2023-12-18T23:11:40.142Z,4.70
2023-12-18T23:14:10.731Z,4.80
2023-12-18T23:16:41.260Z,4.60
2023-12-18T23:19:11.737Z,4.50
2023-12-18T23:21:43.634Z,4.40
2023-12-18T23:24:13.939Z,4.40
2023-12-18T23:26:44.735Z,4.50
2023-12-18T23:29:15.402Z,4.70
2023-12-18T23:31:46.126Z,4.80
2023-12-18T23:34:20.015Z,4.90
2023-12-18T23:36:50.423Z,5.00
2023-12-18T23:39:29.340Z,4.60
2023-12-18T23:42:00.042Z,4.80
2023-12-18T23:44:30.758Z,5.00
2023-12-18T23:47:02.106Z,4.80
2023-12-18T23:49:32.827Z,4.80
2023-12-18T23:52:03.515Z,4.70
2023-12-18T23:54:34.511Z,4.70
2023-12-18T23:57:04.939Z,4.80
2023-12-18T23:59:35.766Z,4.60
